Flight Track Log - Related Links

Times and Time Zones

All times are in EDT time to prevent confusion due to time zone crossing. See the N379B flight status page for this flight to view local times or setup timezone preferences in your user account.

Time Position Orientation Groundspeed Altitude Reporting Facility
EDT Latitude Longitude Course Direction KTS MPH feet Rate Location/Type
Fri 06:38:36 PM 38.8167 -94.7667 216° Southwest 197 227 3,500  Level Kansas City TRACON
Fri 06:39:52 PM 38.8925 -94.8167 333° Northwest 245 282 6,800 2,783 Climbing Kansas City Center
Fri 06:40:54 PM 38.9197 -94.9008 293° West 255 293 9,900 2,293 Climbing Kansas City Center
Fri 06:41:55 PM 38.9486 -94.9942 292° West 278 320 11,500 1,694 Climbing Kansas City Center
Fri 06:42:58 PM 38.9808 -95.0939 293° West 299 344 13,400 2,352 Climbing Kansas City Center
Fri 06:44:00 PM 39.0308 -95.1981 302° West 300 345 16,400 2,341 Climbing Kansas City Center
Fri 06:45:01 PM 39.0717 -95.2847 301° West 296 341 18,200 1,694 Climbing Kansas City Center
Fri 06:46:04 PM 39.1181 -95.3831 301° West 308 354 19,900 1,452 Climbing Kansas City Center
Fri 06:47:05 PM 39.1594 -95.4728 301° West 316 364 21,200 1,403 Climbing Kansas City Center
Fri 06:48:08 PM 39.2067 -95.5717 302° West 319 367 22,800 1,500 Climbing Kansas City Center
Fri 06:49:09 PM 39.2633 -95.6922 301° West 323 372 24,300 1,240 Climbing Kansas City Center
Fri 06:50:09 PM 39.3117 -95.7983 301° West 339 390 25,300 968 Climbing Kansas City Center
Fri 06:51:13 PM 39.3617 -95.9056 301° West 344 396 26,300 952 Climbing Kansas City Center
Fri 06:52:15 PM 39.4133 -96.0153 301° West 353 406 27,300 823 Climbing Kansas City Center
Fri 06:53:17 PM 39.4644 -96.1272 301° West 358 412 28,000 344 Climbing Kansas City Center
Fri 06:54:17 PM 39.5189 -96.2514 300° West 377 434 28,000  Level Kansas City Center
Fri 06:55:21 PM 39.5742 -96.3672 302° West 388 447 28,000  Level Kansas City Center
Fri 06:56:22 PM 39.6411 -96.5150 301° West 395 455 28,000  Level Kansas City Center
Fri 06:57:23 PM 39.6967 -96.6378 300° West 395 455 28,000  Level Kansas City Center
Fri 06:58:27 PM 39.7522 -96.7600 301° West 395 455 28,000  Level Kansas City Center
Fri 06:59:28 PM 39.8131 -96.8944 301° West 395 455 28,000  Level Kansas City Center
Fri 07:00:29 PM 39.8689 -97.0189 300° West 395 455 28,000  Level Kansas City Center
Fri 07:01:33 PM 39.9242 -97.1425 300° West 395 455 28,000  Level Kansas City Center
Fri 07:02:28 PM 39.9689 -97.2467 299° West 394 453 28,000  Level Minneapolis Center
Fri 07:03:30 PM 40.0322 -97.3908 300° West 394 453 28,000  Level Minneapolis Center
Fri 07:04:32 PM 40.0867 -97.5142 300° West 394 453 28,000 -290 Level Minneapolis Center
Fri 07:05:34 PM 40.1389 -97.6350 300° West 388 447 27,400 -1,306 Descending Minneapolis Center
Fri 07:06:36 PM 40.1875 -97.7558 298° West 380 437 25,300 -2,323 Descending Minneapolis Center
Fri 07:07:38 PM 40.2428 -97.8994 297° West 372 428 22,600 -2,516 Descending Minneapolis Center
Fri 07:08:40 PM 40.2878 -98.0158 297° West 363 418 20,100 -2,256 Descending Minneapolis Center
Fri 07:09:43 PM 40.3303 -98.1275 297° West 350 403 17,900 -2,016 Descending Minneapolis Center
Fri 07:10:45 PM 40.3719 -98.2356 297° West 337 388 15,900 -1,935 Descending Minneapolis Center
Fri 07:11:47 PM 40.4131 -98.3439 297° West 334 384 13,900 -1,887 Descending Minneapolis Center
Fri 07:12:49 PM 40.4533 -98.4503 296° West 331 381 12,000 -1,839 Descending Minneapolis Center
Fri 07:14:00 PM 40.5177 -98.5542 309° West  Level FlightAware Approximate
Fri 07:21:00 PM 40.7167 -99.0000 303° West  Level FlightAware Approximate
Fri 07:22:00 PM 40.7270 -99.0068 303° West  Level Estimated
Fri 07:23:00 PM 40.7270 -99.0068 303° West  Level Estimated
Fri 07:24:00 PM 40.7270 -99.0068 303° West  Level Estimated

Login

Don't have an account? Register now (free) for customized features, flight alerts, and more!